Time;durP1;ratioP1;P1;durP2;ratioP2;P2;SDS_P1;SDS_P2;PMS_P1;PMS_P2;Temp;Humidity;BMP_temperature;BMP_pressure;BME280_temperature;BME280_humidity;BME280_pressure;Samples;Min_cycle;Max_cycle;Signal;HPM_P1;HPM_P2
2023/04/06 00:00:37;;;;;;;9.40;3.38;;;1.80;99.90;;;;;;5049518;28;20031;-48
2023/04/06 00:03:03;;;;;;;5.35;3.13;;;1.70;99.90;;;;;;5048836;28;20052;-47
2023/04/06 00:05:30;;;;;;;7.18;3.70;;;1.70;99.90;;;;;;5049942;28;20036;-48
2023/04/06 00:07:59;;;;;;;6.75;2.95;;;1.70;99.90;;;;;;5049308;28;20102;-50
2023/04/06 00:10:25;;;;;;;6.88;3.58;;;1.60;99.90;;;;;;5049537;28;20032;-47
2023/04/06 00:12:50;;;;;;;8.27;3.70;;;1.60;99.90;;;;;;5049577;28;20443;-49
2023/04/06 00:15:16;;;;;;;7.55;3.80;;;1.60;99.90;;;;;;5049397;28;20017;-47
2023/04/06 00:17:41;;;;;;;8.68;3.30;;;1.60;99.90;;;;;;5049436;28;20021;-47
2023/04/06 00:20:08;;;;;;;6.45;3.97;;;1.60;99.90;;;;;;5048307;28;20063;-46
2023/04/06 00:22:34;;;;;;;4.80;3.50;;;1.50;99.90;;;;;;5043920;28;20059;-47
2023/04/06 00:24:59;;;;;;;6.97;3.17;;;1.60;99.90;;;;;;5040164;28;20092;-47
2023/04/06 00:27:25;;;;;;;6.60;4.07;;;1.60;99.90;;;;;;5046807;28;20443;-47
2023/04/06 00:29:51;;;;;;;6.80;4.60;;;1.60;99.90;;;;;;5046337;28;20039;-47
2023/04/06 00:32:16;;;;;;;7.82;3.58;;;1.60;99.90;;;;;;5040583;28;20013;-50
2023/04/06 00:34:42;;;;;;;6.88;3.20;;;1.60;99.90;;;;;;5041989;28;20028;-48
2023/04/06 00:37:07;;;;;;;5.38;2.90;;;1.60;99.90;;;;;;5041385;28;20024;-50
2023/04/06 00:39:33;;;;;;;6.85;3.45;;;1.60;99.90;;;;;;5042640;28;20502;-47
2023/04/06 00:41:58;;;;;;;7.18;3.28;;;1.50;99.90;;;;;;5042187;28;20025;-47
2023/04/06 00:44:24;;;;;;;11.23;3.72;;;1.50;99.90;;;;;;5044020;28;20100;-47
2023/04/06 00:46:50;;;;;;;6.38;3.17;;;1.50;99.90;;;;;;5045050;28;20025;-46
2023/04/06 00:49:15;;;;;;;9.02;3.50;;;1.40;99.90;;;;;;5042284;28;20037;-48
2023/04/06 00:51:41;;;;;;;9.38;4.05;;;1.40;99.90;;;;;;5042877;28;20092;-47
2023/04/06 00:54:07;;;;;;;5.20;2.95;;;1.40;99.90;;;;;;5041038;28;20024;-50
2023/04/06 00:56:32;;;;;;;7.47;3.50;;;1.40;99.90;;;;;;5042255;28;20029;-48
2023/04/06 00:58:58;;;;;;;6.80;3.10;;;1.40;99.90;;;;;;5041831;28;20021;-48
2023/04/06 01:01:24;;;;;;;6.95;3.72;;;1.40;99.90;;;;;;5040674;28;20022;-46
2023/04/06 01:03:51;;;;;;;6.82;3.38;;;1.40;99.90;;;;;;5042806;28;20282;-47
2023/04/06 01:06:17;;;;;;;7.85;3.70;;;1.40;99.90;;;;;;5043098;28;20013;-48
2023/04/06 01:08:42;;;;;;;6.97;2.92;;;1.30;99.90;;;;;;5042781;28;20017;-47
2023/04/06 01:11:08;;;;;;;5.57;3.25;;;1.30;99.90;;;;;;5040167;28;20017;-48
2023/04/06 01:13:34;;;;;;;5.85;2.95;;;1.30;99.90;;;;;;5041996;28;20025;-46
2023/04/06 01:15:59;;;;;;;5.68;3.40;;;1.20;99.90;;;;;;5040018;28;20044;-47
2023/04/06 01:18:29;;;;;;;7.45;4.15;;;1.20;99.90;;;;;;5041008;28;20057;-47
2023/04/06 01:20:55;;;;;;;4.83;3.20;;;1.20;99.90;;;;;;5042320;28;20414;-46
2023/04/06 01:23:21;;;;;;;5.95;3.70;;;1.10;99.90;;;;;;5040680;28;20313;-49
2023/04/06 01:25:46;;;;;;;5.45;3.05;;;1.10;99.90;;;;;;5042649;28;20491;-46
2023/04/06 01:28:12;;;;;;;7.97;3.65;;;1.10;99.90;;;;;;5044396;28;20036;-47
2023/04/06 01:30:38;;;;;;;6.25;3.15;;;0.90;99.90;;;;;;5048436;28;20013;-49
2023/04/06 01:33:03;;;;;;;5.75;3.55;;;1.00;99.90;;;;;;5048443;28;20021;-49
2023/04/06 01:35:30;;;;;;;7.90;4.78;;;1.00;99.90;;;;;;5048196;28;20100;-46
2023/04/06 01:37:56;;;;;;;5.53;3.33;;;0.90;99.90;;;;;;5047747;28;20055;-48
2023/04/06 01:40:21;;;;;;;6.95;3.28;;;0.80;99.90;;;;;;5048393;28;20108;-46
2023/04/06 01:42:47;;;;;;;6.13;3.70;;;0.80;99.90;;;;;;5048454;28;20111;-46
2023/04/06 01:45:12;;;;;;;8.35;3.50;;;0.80;99.90;;;;;;5048464;28;20062;-47
2023/04/06 01:47:38;;;;;;;6.63;4.57;;;0.80;99.90;;;;;;5047541;28;20394;-47
2023/04/06 01:50:06;;;;;;;7.75;4.70;;;0.80;99.90;;;;;;5048291;28;20013;-50
2023/04/06 01:52:32;;;;;;;6.13;3.92;;;0.80;99.90;;;;;;5048341;28;20494;-47
2023/04/06 01:54:58;;;;;;;8.10;4.80;;;0.70;99.90;;;;;;5048265;28;20037;-45
2023/04/06 01:57:25;;;;;;;8.32;4.75;;;0.80;99.90;;;;;;5049242;28;20070;-46
2023/04/06 01:59:50;;;;;;;8.77;4.60;;;0.70;99.90;;;;;;5055108;28;20059;-45
2023/04/06 02:02:16;;;;;;;6.32;3.90;;;0.70;99.90;;;;;;5048157;28;20048;-46
2023/04/06 02:04:41;;;;;;;10.95;4.70;;;0.70;99.90;;;;;;5048252;28;20025;-46
2023/04/06 02:07:07;;;;;;;6.95;4.60;;;0.70;99.90;;;;;;5048070;28;20033;-45
2023/04/06 02:09:32;;;;;;;6.88;4.15;;;0.60;99.90;;;;;;5047749;28;20462;-46
2023/04/06 02:11:58;;;;;;;7.05;4.45;;;0.60;99.90;;;;;;5048160;28;20025;-46
2023/04/06 02:14:25;;;;;;;6.47;4.40;;;0.60;99.90;;;;;;5048209;28;20021;-48
2023/04/06 02:16:51;;;;;;;6.53;4.15;;;0.50;99.90;;;;;;5047954;28;20099;-45
2023/04/06 02:19:17;;;;;;;9.95;4.55;;;0.50;99.90;;;;;;5047932;28;20104;-47
2023/04/06 02:21:42;;;;;;;9.27;5.25;;;0.40;99.90;;;;;;5048310;28;20032;-50
2023/04/06 02:24:08;;;;;;;9.52;4.85;;;0.40;99.90;;;;;;5051755;28;20086;-47
2023/04/06 02:26:33;;;;;;;11.55;5.25;;;0.40;99.90;;;;;;5049970;28;20029;-47
2023/04/06 02:28:59;;;;;;;10.30;4.82;;;0.40;99.90;;;;;;5050078;28;20047;-46
2023/04/06 02:31:26;;;;;;;8.45;5.25;;;0.40;99.90;;;;;;5051220;28;20025;-46
2023/04/06 02:33:51;;;;;;;11.20;5.72;;;0.40;99.90;;;;;;5051431;28;20013;-49
2023/04/06 02:36:17;;;;;;;9.57;5.47;;;0.30;99.90;;;;;;5051194;28;20225;-46
2023/04/06 02:38:43;;;;;;;8.95;5.28;;;0.30;99.90;;;;;;5051286;28;20383;-50
2023/04/06 02:41:09;;;;;;;8.18;5.22;;;0.30;99.90;;;;;;5051494;28;20014;-47
2023/04/06 02:43:34;;;;;;;7.40;5.40;;;0.30;99.90;;;;;;5051232;28;20378;-46
2023/04/06 02:46:00;;;;;;;9.32;5.10;;;0.30;99.90;;;;;;5050850;28;20024;-46
2023/04/06 02:48:26;;;;;;;7.35;4.85;;;0.30;99.90;;;;;;5050510;28;20028;-46
2023/04/06 02:50:51;;;;;;;7.43;4.68;;;0.20;99.90;;;;;;5051049;28;20210;-46
2023/04/06 02:53:17;;;;;;;11.82;5.15;;;0.10;99.90;;;;;;5051039;28;20029;-46
2023/04/06 02:55:42;;;;;;;8.52;5.78;;;0.10;99.90;;;;;;5050930;28;20024;-47
2023/04/06 02:58:08;;;;;;;8.55;5.05;;;0.10;99.90;;;;;;5049612;28;20028;-46
2023/04/06 03:00:33;;;;;;;8.35;5.57;;;0.10;99.90;;;;;;5050802;28;20482;-46
2023/04/06 03:02:59;;;;;;;11.70;5.43;;;0.10;99.90;;;;;;5051425;28;20471;-47
2023/04/06 03:05:24;;;;;;;11.32;5.70;;;0.10;99.90;;;;;;5049889;28;20029;-46
2023/04/06 03:07:50;;;;;;;8.68;5.05;;;0.10;99.90;;;;;;5051137;28;20055;-46
2023/04/06 03:10:15;;;;;;;9.68;6.57;;;0.10;99.90;;;;;;5051452;28;20025;-48
2023/04/06 03:12:41;;;;;;;7.88;5.57;;;0.10;99.90;;;;;;5049467;28;20021;-47
2023/04/06 03:15:07;;;;;;;8.55;5.63;;;0.00;99.90;;;;;;5050896;28;20074;-45
2023/04/06 03:17:33;;;;;;;16.63;5.72;;;0.00;99.90;;;;;;5050459;28;20103;-46
2023/04/06 03:19:58;;;;;;;8.82;5.57;;;0.00;99.90;;;;;;5050788;28;20048;-48
2023/04/06 03:22:24;;;;;;;10.05;5.68;;;0.00;99.90;;;;;;5050713;28;20040;-46
2023/04/06 03:24:50;;;;;;;12.20;5.78;;;0.00;99.90;;;;;;5050981;28;20407;-46
2023/04/06 03:27:15;;;;;;;8.13;5.57;;;0.00;99.90;;;;;;5050906;28;20025;-46
2023/04/06 03:29:41;;;;;;;8.43;5.38;;;-0.10;99.90;;;;;;5050339;28;20111;-45
2023/04/06 03:32:06;;;;;;;9.85;6.25;;;-0.10;99.90;;;;;;5050467;28;20024;-46
2023/04/06 03:34:32;;;;;;;10.52;6.22;;;-0.10;99.90;;;;;;5050390;28;20344;-46
2023/04/06 03:36:58;;;;;;;11.05;5.85;;;0.00;99.90;;;;;;5050554;28;20048;-47
2023/04/06 03:39:23;;;;;;;7.60;5.35;;;-0.10;99.90;;;;;;5050079;28;20071;-46
2023/04/06 03:41:49;;;;;;;8.73;5.35;;;-0.10;99.90;;;;;;5050413;28;20099;-45
2023/04/06 03:44:14;;;;;;;12.63;5.95;;;-0.10;99.90;;;;;;5049362;28;20036;-46
2023/04/06 03:46:40;;;;;;;12.25;6.10;;;-0.10;99.90;;;;;;5050030;28;20033;-46
2023/04/06 03:49:05;;;;;;;11.00;6.43;;;-0.10;99.90;;;;;;5050075;28;20021;-49
2023/04/06 03:51:31;;;;;;;10.45;6.22;;;-0.10;99.90;;;;;;5049750;28;20407;-47
2023/04/06 03:53:57;;;;;;;11.68;6.40;;;-0.10;99.90;;;;;;5050086;28;20028;-46
2023/04/06 03:56:22;;;;;;;16.58;6.30;;;-0.10;99.90;;;;;;5048245;28;20078;-46
2023/04/06 03:58:51;;;;;;;9.70;6.03;;;-0.10;99.90;;;;;;5048517;28;20029;-49
2023/04/06 04:01:19;;;;;;;13.02;7.38;;;-0.10;99.90;;;;;;5049842;28;20021;-47
2023/04/06 04:03:45;;;;;;;13.55;6.60;;;-0.10;99.90;;;;;;5049945;28;20417;-47
2023/04/06 04:06:10;;;;;;;13.98;7.05;;;-0.10;99.90;;;;;;5049658;28;20050;-48
2023/04/06 04:08:36;;;;;;;12.65;6.95;;;-0.20;99.90;;;;;;5042003;28;20486;-45
2023/04/06 04:11:01;;;;;;;11.98;7.03;;;-0.20;99.90;;;;;;5049760;28;20052;-46
2023/04/06 04:13:27;;;;;;;9.52;5.78;;;-0.20;99.90;;;;;;5049801;28;20021;-47
2023/04/06 04:15:53;;;;;;;12.20;6.65;;;-0.20;99.90;;;;;;5043983;28;20104;-46
2023/04/06 04:18:18;;;;;;;17.88;7.72;;;-0.20;99.90;;;;;;5049423;28;20447;-47
2023/04/06 04:20:44;;;;;;;12.30;6.82;;;-0.20;99.90;;;;;;5049520;28;20021;-47
2023/04/06 04:23:10;;;;;;;11.82;7.00;;;-0.20;99.90;;;;;;5049903;28;20052;-48
2023/04/06 04:25:35;;;;;;;11.40;6.65;;;-0.20;99.90;;;;;;5050046;28;20109;-46
2023/04/06 04:28:01;;;;;;;11.35;7.30;;;-0.20;99.90;;;;;;5047615;28;20114;-46
2023/04/06 04:30:27;;;;;;;9.95;6.50;;;-0.10;99.90;;;;;;5049354;28;20226;-47
2023/04/06 04:32:52;;;;;;;10.63;7.13;;;-0.10;99.90;;;;;;5040271;28;20044;-45
2023/04/06 04:35:18;;;;;;;14.18;7.68;;;-0.10;99.90;;;;;;5049453;28;20028;-46
2023/04/06 04:37:44;;;;;;;12.02;6.97;;;-0.20;99.90;;;;;;5049273;28;20074;-47
2023/04/06 04:40:10;;;;;;;16.13;7.63;;;-0.20;99.90;;;;;;5049320;28;20486;-47
2023/04/06 04:42:35;;;;;;;14.10;8.05;;;-0.20;99.90;;;;;;5049584;28;20039;-48
2023/04/06 04:45:01;;;;;;;16.23;7.05;;;-0.20;99.90;;;;;;5048908;28;20033;-46
2023/04/06 04:47:27;;;;;;;10.45;6.63;;;-0.20;99.90;;;;;;5048932;28;20387;-47
2023/04/06 04:49:52;;;;;;;14.70;8.25;;;-0.20;99.90;;;;;;5048921;28;20024;-45
2023/04/06 04:52:18;;;;;;;11.85;7.60;;;-0.20;99.90;;;;;;5048910;28;20048;-45
2023/04/06 04:54:43;;;;;;;15.85;7.80;;;-0.20;99.90;;;;;;5047694;28;20092;-46
2023/04/06 04:57:09;;;;;;;15.98;7.93;;;-0.20;99.90;;;;;;5048936;28;20391;-46
2023/04/06 04:59:35;;;;;;;11.98;7.15;;;-0.20;99.90;;;;;;5042988;28;20053;-46
2023/04/06 05:02:01;;;;;;;12.85;6.90;;;-0.20;99.90;;;;;;5042217;28;20060;-46
2023/04/06 05:04:26;;;;;;;12.10;7.85;;;-0.20;99.90;;;;;;5054787;28;20071;-46
2023/04/06 05:07:06;;;;;;;10.57;6.65;;;-0.20;99.90;;;;;;5045960;28;20510;-47
2023/04/06 05:09:31;;;;;;;13.00;8.00;;;-0.20;99.90;;;;;;5049091;28;20017;-46
2023/04/06 05:11:59;;;;;;;16.30;7.85;;;-0.20;99.90;;;;;;5049010;28;20334;-46
2023/04/06 05:14:25;;;;;;;12.68;7.57;;;-0.20;99.90;;;;;;5048700;28;20321;-47
2023/04/06 05:16:51;;;;;;;15.73;8.05;;;-0.20;99.90;;;;;;5044911;28;20479;-47
2023/04/06 05:19:17;;;;;;;13.80;7.72;;;-0.20;99.90;;;;;;5044231;28;20425;-46
2023/04/06 05:21:43;;;;;;;17.58;8.35;;;-0.20;99.90;;;;;;5048281;28;20095;-46
2023/04/06 05:24:08;;;;;;;15.13;7.80;;;-0.20;99.90;;;;;;5043130;28;20026;-45
2023/04/06 05:26:34;;;;;;;14.65;7.72;;;-0.20;99.90;;;;;;5042351;28;20482;-46
2023/04/06 05:29:00;;;;;;;16.30;9.05;;;-0.10;99.90;;;;;;5040646;28;20044;-48
2023/04/06 05:31:26;;;;;;;13.98;8.18;;;-0.20;99.90;;;;;;5039100;28;20025;-49
2023/04/06 05:33:51;;;;;;;15.02;8.43;;;-0.10;99.90;;;;;;5041676;28;20039;-46
2023/04/06 05:36:17;;;;;;;14.25;8.35;;;0.00;99.90;;;;;;5047332;28;20025;-46
2023/04/06 05:38:42;;;;;;;13.70;7.85;;;0.00;99.90;;;;;;5048314;28;20029;-45
2023/04/06 05:41:08;;;;;;;14.88;8.77;;;0.00;99.90;;;;;;5048800;28;20025;-47
2023/04/06 05:43:34;;;;;;;14.75;8.20;;;0.00;99.90;;;;;;5048570;28;20568;-47
2023/04/06 05:45:59;;;;;;;12.75;7.68;;;0.10;99.90;;;;;;5048440;28;20029;-46
2023/04/06 05:48:25;;;;;;;13.30;8.10;;;0.10;99.90;;;;;;5048050;28;20029;-46
2023/04/06 05:50:51;;;;;;;15.40;8.80;;;0.10;99.90;;;;;;5048180;28;20021;-46
2023/04/06 05:53:17;;;;;;;18.67;8.93;;;0.20;99.90;;;;;;5048045;28;20025;-46
2023/04/06 05:55:42;;;;;;;17.73;10.00;;;0.20;99.90;;;;;;5048163;28;20075;-47
2023/04/06 05:58:09;;;;;;;21.90;10.98;;;0.30;99.90;;;;;;5051276;28;20022;-48
2023/04/06 06:00:34;;;;;;;17.52;8.23;;;0.30;99.90;;;;;;5052453;28;20021;-46
2023/04/06 06:03:00;;;;;;;26.27;10.25;;;0.40;99.90;;;;;;5051226;28;20029;-46
2023/04/06 06:05:25;;;;;;;20.73;10.02;;;0.40;99.90;;;;;;5051075;28;20029;-47
2023/04/06 06:07:52;;;;;;;18.67;9.18;;;0.50;99.90;;;;;;5046465;28;20775;-46
2023/04/06 06:10:17;;;;;;;18.05;8.95;;;0.50;99.90;;;;;;5045109;28;20437;-46
2023/04/06 06:12:43;;;;;;;17.85;8.95;;;0.60;99.90;;;;;;5044538;28;20063;-46
2023/04/06 06:15:09;;;;;;;17.08;9.80;;;0.70;99.90;;;;;;5048538;28;20074;-47
2023/04/06 06:17:34;;;;;;;14.52;9.05;;;0.80;99.90;;;;;;5051403;28;20017;-46
2023/04/06 06:20:00;;;;;;;15.02;9.07;;;0.80;99.90;;;;;;5051933;28;20505;-46
2023/04/06 06:22:25;;;;;;;18.50;9.40;;;0.80;99.90;;;;;;5052248;28;20020;-47
2023/04/06 06:24:51;;;;;;;18.50;9.88;;;0.90;99.90;;;;;;5051974;28;20029;-47
2023/04/06 06:27:16;;;;;;;18.83;9.50;;;1.00;99.90;;;;;;5051643;28;20073;-47
2023/04/06 06:29:42;;;;;;;15.25;9.90;;;1.10;99.90;;;;;;5051634;28;20021;-49
2023/04/06 06:32:08;;;;;;;12.93;8.93;;;1.20;99.90;;;;;;5051579;28;20021;-46
2023/04/06 06:34:35;;;;;;;16.85;9.98;;;1.20;99.90;;;;;;5051406;28;20418;-47
2023/04/06 06:37:01;;;;;;;15.68;9.27;;;1.30;99.90;;;;;;5051543;28;20478;-46
2023/04/06 06:39:27;;;;;;;16.20;9.90;;;1.40;99.90;;;;;;5051327;28;20075;-49
2023/04/06 06:41:54;;;;;;;13.77;9.02;;;1.50;99.90;;;;;;5050147;28;20021;-46
2023/04/06 06:44:21;;;;;;;18.63;10.73;;;1.60;99.90;;;;;;5051520;28;20025;-46
2023/04/06 06:46:47;;;;;;;18.75;9.45;;;1.70;99.90;;;;;;5051040;28;20079;-46
2023/04/06 06:49:14;;;;;;;13.15;9.23;;;1.80;99.90;;;;;;5051272;28;20025;-48
2023/04/06 06:51:39;;;;;;;14.07;9.07;;;1.90;99.90;;;;;;5051215;28;20020;-47
2023/04/06 06:54:05;;;;;;;20.02;11.20;;;2.00;99.90;;;;;;5051214;28;20017;-49
2023/04/06 06:56:31;;;;;;;17.27;9.40;;;2.10;99.90;;;;;;5050845;28;20025;-47
2023/04/06 06:58:56;;;;;;;17.85;9.90;;;2.20;99.90;;;;;;5050393;28;20048;-47
2023/04/06 07:01:22;;;;;;;18.33;11.02;;;2.40;99.90;;;;;;5051235;28;20096;-46
2023/04/06 07:03:47;;;;;;;16.08;10.18;;;2.50;99.90;;;;;;5059647;28;20036;-47
2023/04/06 07:06:13;;;;;;;15.27;10.30;;;2.60;99.90;;;;;;5049707;28;20016;-46
2023/04/06 07:08:39;;;;;;;15.65;10.38;;;2.80;99.90;;;;;;5050205;28;20033;-49
2023/04/06 07:11:04;;;;;;;15.23;9.63;;;3.00;99.90;;;;;;5049655;28;20009;-50
2023/04/06 07:13:30;;;;;;;18.58;9.95;;;3.10;99.90;;;;;;5051246;28;20398;-49
2023/04/06 07:15:55;;;;;;;19.30;10.02;;;3.30;99.90;;;;;;5047721;28;20029;-48
2023/04/06 07:18:21;;;;;;;14.85;9.65;;;3.50;99.90;;;;;;5050449;28;20029;-47
2023/04/06 07:20:47;;;;;;;17.77;9.85;;;3.70;99.90;;;;;;5050762;28;20017;-48
2023/04/06 07:23:12;;;;;;;15.68;9.27;;;4.00;99.90;;;;;;5050999;28;20028;-47
2023/04/06 07:25:38;;;;;;;15.52;9.07;;;4.20;99.90;;;;;;5050727;28;20025;-48
2023/04/06 07:28:04;;;;;;;13.60;8.98;;;4.50;99.90;;;;;;5050397;28;20036;-47
2023/04/06 07:30:30;;;;;;;12.52;8.07;;;4.90;99.90;;;;;;5051108;28;20096;-47
2023/04/06 07:32:55;;;;;;;13.63;8.00;;;5.20;99.90;;;;;;5050567;28;20021;-49
2023/04/06 07:35:26;;;;;;;13.32;7.78;;;5.80;99.90;;;;;;5049188;28;20425;-47
2023/04/06 07:37:52;;;;;;;12.20;7.55;;;6.20;99.60;;;;;;5050056;28;20036;-49
2023/04/06 07:40:19;;;;;;;14.50;8.15;;;6.60;96.30;;;;;;5049142;28;20033;-48
2023/04/06 07:42:45;;;;;;;11.73;7.75;;;7.00;95.20;;;;;;5050148;28;20021;-48
2023/04/06 07:45:11;;;;;;;15.35;8.25;;;7.10;87.90;;;;;;5048981;28;20028;-47
2023/04/06 07:47:36;;;;;;;12.60;7.03;;;7.10;84.90;;;;;;5049561;28;20500;-50
2023/04/06 07:50:02;;;;;;;14.95;7.80;;;7.20;84.20;;;;;;5050571;28;20088;-50
2023/04/06 07:52:28;;;;;;;11.88;7.85;;;7.60;83.20;;;;;;5050586;28;20025;-47
2023/04/06 07:54:53;;;;;;;11.60;7.28;;;8.20;81.60;;;;;;5049286;28;20017;-47
2023/04/06 07:57:19;;;;;;;10.88;7.55;;;8.60;78.50;;;;;;5065374;28;20029;-50
2023/04/06 07:59:45;;;;;;;11.73;7.43;;;9.20;75.10;;;;;;5048672;28;20056;-48
2023/04/06 08:02:10;;;;;;;10.30;7.57;;;9.80;74.60;;;;;;5049290;28;20025;-47
2023/04/06 08:04:36;;;;;;;11.88;8.02;;;10.50;71.90;;;;;;5048527;28;20036;-50
2023/04/06 08:07:01;;;;;;;9.75;6.70;;;11.00;70.40;;;;;;5047562;28;20029;-49
2023/04/06 08:09:27;;;;;;;12.05;8.68;;;11.40;68.50;;;;;;5049123;28;20048;-51
2023/04/06 08:11:53;;;;;;;11.90;7.78;;;11.40;65.10;;;;;;5047292;28;20063;-48
2023/04/06 08:14:18;;;;;;;14.35;7.30;;;12.00;66.50;;;;;;5049814;28;20021;-48
2023/04/06 08:16:44;;;;;;;10.07;7.53;;;12.30;65.20;;;;;;5049657;28;20309;-48
2023/04/06 08:19:10;;;;;;;15.20;7.15;;;12.40;63.80;;;;;;5048973;28;20021;-50
2023/04/06 08:21:36;;;;;;;9.95;7.30;;;12.50;62.10;;;;;;5049569;28;20036;-48
2023/04/06 08:24:02;;;;;;;9.18;6.95;;;13.40;60.20;;;;;;5049704;28;20025;-49
2023/04/06 08:26:27;;;;;;;8.50;6.80;;;14.90;58.10;;;;;;5049496;28;20474;-47
2023/04/06 08:28:53;;;;;;;11.07;7.10;;;16.00;53.20;;;;;;5049173;28;20482;-46
2023/04/06 08:31:19;;;;;;;10.38;6.82;;;16.50;52.60;;;;;;5048918;28;20509;-48
2023/04/06 08:33:45;;;;;;;10.63;7.25;;;18.30;49.90;;;;;;5049620;28;20017;-46
2023/04/06 08:36:13;;;;;;;6.72;6.03;;;18.70;48.00;;;;;;5048957;28;20100;-46
2023/04/06 08:38:39;;;;;;;10.25;5.63;;;19.80;46.10;;;;;;5048529;28;20021;-46
2023/04/06 08:41:13;;;;;;;7.32;5.82;;;20.60;45.20;;;;;;5048724;28;20025;-47
2023/04/06 08:44:02;;;;;;;7.40;5.75;;;20.90;44.00;;;;;;5048880;28;20044;-47
2023/04/06 08:46:30;;;;;;;10.35;6.57;;;22.40;39.50;;;;;;5057387;28;20052;-46
2023/04/06 08:49:06;;;;;;;9.35;6.45;;;20.70;40.50;;;;;;5048412;28;20025;-46
2023/04/06 08:51:32;;;;;;;8.25;5.60;;;19.30;42.00;;;;;;5048661;28;20013;-47
2023/04/06 08:53:59;;;;;;;14.57;7.22;;;19.90;43.30;;;;;;5049072;28;20023;-48
2023/04/06 08:56:26;;;;;;;6.45;5.57;;;21.20;39.90;;;;;;5048617;28;20190;-46
2023/04/06 08:58:53;;;;;;;10.80;6.10;;;20.10;40.60;;;;;;5048595;28;20048;-47
2023/04/06 09:01:27;;;;;;;6.55;5.40;;;19.60;40.30;;;;;;5048966;28;20056;-46
2023/04/06 09:03:57;;;;;;;7.57;5.70;;;20.00;40.90;;;;;;5048631;28;20074;-46
2023/04/06 09:06:24;;;;;;;8.98;6.25;;;21.10;40.60;;;;;;5047488;28;20640;-48
2023/04/06 09:08:49;;;;;;;8.30;6.20;;;20.40;38.90;;;;;;5049190;28;20025;-47
2023/04/06 09:11:15;;;;;;;9.98;5.97;;;20.70;40.90;;;;;;5048961;28;20087;-46
2023/04/06 09:13:54;;;;;;;7.40;6.45;;;21.40;40.10;;;;;;5048913;28;20017;-47
2023/04/06 09:16:20;;;;;;;7.15;5.50;;;21.50;38.70;;;;;;5048798;28;20279;-50
2023/04/06 09:18:47;;;;;;;9.25;6.95;;;21.70;40.50;;;;;;5047299;28;20024;-47
2023/04/06 09:21:16;;;;;;;8.18;6.10;;;22.80;39.00;;;;;;5057115;28;20630;-49
2023/04/06 09:23:41;;;;;;;15.75;7.78;;;23.20;37.40;;;;;;5047311;28;20086;-46
2023/04/06 09:26:10;;;;;;;14.02;7.60;;;21.90;37.70;;;;;;5036748;28;20025;-46
2023/04/06 09:28:47;;;;;;;7.68;6.60;;;20.80;40.40;;;;;;5055247;28;20053;-46
2023/04/06 09:31:24;;;;;;;8.00;6.57;;;22.10;40.50;;;;;;5048330;28;20087;-48
2023/04/06 09:33:50;;;;;;;15.23;7.70;;;24.20;36.70;;;;;;5048133;28;20033;-48
2023/04/06 09:36:16;;;;;;;9.63;6.85;;;21.80;38.40;;;;;;5048150;28;20039;-46
2023/04/06 09:38:55;;;;;;;7.72;6.38;;;21.20;37.40;;;;;;5047454;28;20486;-46
2023/04/06 09:41:23;;;;;;;14.43;6.95;;;23.00;37.30;;;;;;5043736;28;20106;-48
2023/04/06 09:43:50;;;;;;;14.20;6.80;;;21.40;37.10;;;;;;5048176;28;20039;-48
2023/04/06 09:46:17;;;;;;;11.15;6.43;;;20.80;38.40;;;;;;5047789;28;20029;-46
2023/04/06 09:48:43;;;;;;;10.00;6.00;;;21.00;39.60;;;;;;5046412;28;20035;-46
2023/04/06 09:51:13;;;;;;;9.27;5.90;;;22.80;38.90;;;;;;5048494;28;20025;-47
2023/04/06 09:53:41;;;;;;;6.32;5.30;;;23.10;37.50;;;;;;5048209;28;20021;-47
2023/04/06 09:56:12;;;;;;;9.57;5.43;;;24.70;36.60;;;;;;5056341;28;20017;-47
2023/04/06 09:58:40;;;;;;;;;;;26.00;36.40;;;;;;5048405;28;20028;-48
2023/04/06 10:01:11;;;;;;;7.32;6.35;;;27.10;36.50;;;;;;5048278;28;19951;-47
2023/04/06 10:04:13;;;;;;;8.40;6.15;;;26.50;33.70;;;;;;5047842;28;20020;-47
2023/04/06 10:06:39;;;;;;;11.10;6.57;;;26.40;33.70;;;;;;5048154;28;20497;-49
2023/04/06 10:09:07;;;;;;;6.88;5.72;;;25.30;33.90;;;;;;5047769;28;20087;-47
2023/04/06 10:11:33;;;;;;;7.30;6.47;;;25.10;35.80;;;;;;5047908;28;20017;-47
2023/04/06 10:14:00;;;;;;;6.55;5.72;;;26.70;33.60;;;;;;5048180;28;20036;-49
2023/04/06 10:16:27;;;;;;;8.50;5.75;;;27.00;34.40;;;;;;5047965;28;20122;-47
2023/04/06 10:19:00;;;;;;;12.63;5.28;;;27.00;34.60;;;;;;5047689;28;20110;-48
2023/04/06 10:21:28;;;;;;;7.72;5.60;;;27.30;34.30;;;;;;5048191;28;20013;-47
2023/04/06 10:23:58;;;;;;;11.05;6.30;;;26.50;33.40;;;;;;5047708;28;20418;-50
2023/04/06 10:26:24;;;;;;;;;;;24.90;35.30;;;;;;5055391;28;20523;-48
2023/04/06 10:28:50;;;;;;;9.15;6.25;;;25.80;33.50;;;;;;5053599;28;19981;-47
2023/04/06 10:31:27;;;;;;;10.60;5.80;;;26.80;35.00;;;;;;5053511;28;20482;-46
2023/04/06 10:33:57;;;;;;;7.47;5.78;;;27.70;33.80;;;;;;5046790;28;20217;-46
2023/04/06 10:36:33;;;;;;;6.75;6.05;;;27.80;32.80;;;;;;5041134;28;20021;-47
2023/04/06 10:39:02;;;;;;;7.90;5.55;;;27.60;36.20;;;;;;5046614;28;20079;-49
2023/04/06 10:41:40;;;;;;;8.73;6.10;;;27.30;34.90;;;;;;5048372;28;20025;-46
2023/04/06 10:44:06;;;;;;;6.55;5.78;;;27.00;34.60;;;;;;5050223;28;20263;-47
2023/04/06 10:46:33;;;;;;;8.75;7.20;;;26.70;33.90;;;;;;5060001;28;20037;-46
2023/04/06 10:49:10;;;;;;;7.00;5.68;;;26.40;34.70;;;;;;5054847;28;20030;-46
2023/04/06 10:51:38;;;;;;;10.75;5.78;;;25.40;33.10;;;;;;5049437;28;20355;-49
2023/04/06 10:54:05;;;;;;;8.18;5.53;;;25.60;33.20;;;;;;5051766;28;20029;-49
2023/04/06 10:56:34;;;;;;;8.45;5.97;;;25.70;34.80;;;;;;5059578;28;20568;-46
2023/04/06 10:59:00;;;;;;;14.20;6.75;;;24.80;33.80;;;;;;5055152;28;20235;-47
2023/04/06 11:01:27;;;;;;;7.50;6.20;;;22.90;35.30;;;;;;5054588;28;20029;-46
2023/04/06 11:03:55;;;;;;;8.18;6.15;;;21.70;37.80;;;;;;5051033;28;20029;-50
2023/04/06 11:06:26;;;;;;;9.93;6.30;;;22.60;40.70;;;;;;5050529;28;20033;-48
2023/04/06 11:08:53;;;;;;;8.35;6.55;;;22.60;38.00;;;;;;5041862;28;20021;-47
2023/04/06 11:11:21;;;;;;;8.35;6.30;;;23.60;36.30;;;;;;5057606;28;20025;-49
2023/04/06 11:13:56;;;;;;;7.43;5.68;;;23.90;36.40;;;;;;5052933;28;20048;-47
2023/04/06 11:16:23;;;;;;;8.40;5.90;;;25.50;36.30;;;;;;5059171;28;20483;-48
2023/04/06 11:19:00;;;;;;;10.32;7.22;;;26.00;39.30;;;;;;5059116;28;20043;-47
2023/04/06 11:21:36;;;;;;;11.82;7.70;;;24.40;33.60;;;;;;5059235;28;20025;-47
2023/04/06 11:24:12;;;;;;;11.82;7.20;;;24.70;34.10;;;;;;5051511;28;20017;-47
2023/04/06 11:26:50;;;;;;;9.73;6.38;;;22.70;35.60;;;;;;5044765;28;20499;-46
2023/04/06 11:29:17;;;;;;;6.97;6.28;;;22.40;37.10;;;;;;5051021;28;20025;-46
2023/04/06 11:31:46;;;;;;;9.63;6.97;;;23.60;36.60;;;;;;5059117;28;20096;-47
2023/04/06 11:34:13;;;;;;;9.85;6.90;;;24.30;34.50;;;;;;5055998;28;20013;-46
2023/04/06 11:36:43;;;;;;;10.57;6.88;;;23.70;35.10;;;;;;5061381;28;20017;-49
2023/04/06 11:39:10;;;;;;;8.48;6.20;;;24.80;35.00;;;;;;5050434;28;20113;-46
2023/04/06 11:41:35;;;;;;;12.15;6.18;;;25.20;36.20;;;;;;5050925;28;20112;-46
2023/04/06 11:44:02;;;;;;;8.73;7.28;;;25.80;34.90;;;;;;5050852;28;20092;-47
2023/04/06 11:46:28;;;;;;;9.30;7.25;;;24.90;37.10;;;;;;5049236;28;20017;-46
2023/04/06 11:49:02;;;;;;;7.57;6.80;;;23.50;34.90;;;;;;5050432;28;20060;-46
2023/04/06 11:51:28;;;;;;;10.38;6.65;;;24.80;34.60;;;;;;5049306;28;20103;-49
2023/04/06 11:53:55;;;;;;;10.48;6.45;;;23.40;37.70;;;;;;5048635;28;20112;-47
2023/04/06 11:56:30;;;;;;;8.18;6.60;;;22.70;36.40;;;;;;5048068;28;20653;-46
2023/04/06 11:58:58;;;;;;;10.30;6.45;;;23.50;37.20;;;;;;5049807;28;20112;-46
2023/04/06 12:01:25;;;;;;;9.85;7.35;;;23.80;37.60;;;;;;5050130;28;20021;-48
2023/04/06 12:03:51;;;;;;;15.93;7.40;;;24.10;35.90;;;;;;5051207;28;20056;-46
2023/04/06 12:06:17;;;;;;;10.23;8.00;;;24.60;37.10;;;;;;5055119;28;20017;-48
2023/04/06 12:08:42;;;;;;;9.50;6.65;;;24.00;34.80;;;;;;5048202;28;20089;-47
2023/04/06 12:11:08;;;;;;;9.30;6.40;;;24.70;35.60;;;;;;5055258;28;20466;-46
2023/04/06 12:13:34;;;;;;;8.77;7.70;;;24.00;35.10;;;;;;5053404;28;20072;-46
2023/04/06 12:15:59;;;;;;;9.02;7.72;;;23.00;36.50;;;;;;5042638;28;20240;-45
2023/04/06 12:18:25;;;;;;;10.45;7.65;;;22.40;36.80;;;;;;5041289;28;20034;-46
2023/04/06 12:20:51;;;;;;;8.77;7.47;;;21.30;39.90;;;;;;5044975;28;20163;-46
2023/04/06 12:23:17;;;;;;;13.15;8.43;;;21.60;40.30;;;;;;5043888;28;20021;-46
2023/04/06 12:25:42;;;;;;;10.13;8.65;;;22.00;40.00;;;;;;5047950;28;20417;-46
2023/04/06 12:28:08;;;;;;;12.82;8.27;;;20.10;38.70;;;;;;5054080;28;20021;-45
2023/04/06 12:30:35;;;;;;;12.95;8.80;;;18.60;42.60;;;;;;5052587;28;20097;-45
2023/04/06 12:33:01;;;;;;;13.27;9.00;;;19.00;40.70;;;;;;5049487;28;20281;-48
2023/04/06 12:35:27;;;;;;;13.45;8.82;;;19.20;41.90;;;;;;5047414;28;20029;-47
2023/04/06 12:37:52;;;;;;;12.05;8.23;;;19.70;42.00;;;;;;5044793;28;20029;-50
2023/04/06 12:40:18;;;;;;;14.45;9.18;;;18.70;42.60;;;;;;5049453;28;20110;-47
2023/04/06 12:42:45;;;;;;;12.82;8.43;;;18.80;41.10;;;;;;5049322;28;20025;-47